createdAt,value
2018-11-06T00:01:07.070Z,0
2018-11-06T00:02:21.122Z,0
2018-11-06T00:03:35.162Z,0
2018-11-06T00:04:48.697Z,0
2018-11-06T00:06:02.484Z,0
2018-11-06T00:07:16.991Z,0
2018-11-06T00:08:31.279Z,0
2018-11-06T00:09:44.600Z,0
2018-11-06T00:10:58.381Z,0
2018-11-06T00:12:27.343Z,0
2018-11-06T00:13:41.631Z,0
2018-11-06T00:14:55.336Z,0
2018-11-06T00:16:09.166Z,0
2018-11-06T00:17:23.436Z,0
2018-11-06T00:18:37.445Z,0
2018-11-06T00:19:51.577Z,0
2018-11-06T00:21:05.893Z,0
2018-11-06T00:22:19.448Z,0
2018-11-06T00:23:33.223Z,0
2018-11-06T00:24:47.475Z,0
2018-11-06T00:26:02.053Z,0
2018-11-06T00:27:15.845Z,0
2018-11-06T00:28:30.141Z,0
2018-11-06T00:29:44.167Z,0
2018-11-06T00:30:57.982Z,0
2018-11-06T00:32:11.667Z,0
2018-11-06T00:33:25.711Z,0
2018-11-06T00:34:39.983Z,0
2018-11-06T00:35:54.010Z,0
2018-11-06T00:37:07.838Z,0
2018-11-06T00:38:21.706Z,0
2018-11-06T00:39:35.723Z,0
2018-11-06T00:40:49.283Z,0
2018-11-06T00:42:03.067Z,0
2018-11-06T00:43:17.115Z,0
2018-11-06T00:44:31.632Z,0
2018-11-06T00:45:45.667Z,0
2018-11-06T00:46:59.701Z,0
2018-11-06T00:48:14.155Z,0
2018-11-06T00:49:28.219Z,0
2018-11-06T00:50:42.254Z,0
2018-11-06T00:51:56.472Z,0
2018-11-06T00:53:10.057Z,0
2018-11-06T00:54:24.065Z,0
2018-11-06T00:55:38.195Z,0
2018-11-06T00:56:52.065Z,0
2018-11-06T00:58:05.892Z,0
2018-11-06T00:59:20.129Z,0
2018-11-06T01:00:48.148Z,0
2018-11-06T01:02:02.158Z,0
2018-11-06T01:03:15.973Z,0
2018-11-06T01:04:30.302Z,0
2018-11-06T01:05:44.325Z,0
2018-11-06T01:06:58.096Z,0
2018-11-06T01:08:11.688Z,0
2018-11-06T01:09:26.522Z,0
2018-11-06T01:22:02.361Z,0
2018-11-06T01:23:16.677Z,0
2018-11-06T01:24:30.713Z,0
2018-11-06T01:25:45.010Z,0
2018-11-06T01:26:58.643Z,0
2018-11-06T01:28:12.478Z,0
2018-11-06T01:29:26.055Z,0
2018-11-06T01:30:39.881Z,0
2018-11-06T01:31:53.680Z,0
2018-11-06T01:33:07.685Z,0
2018-11-06T01:34:22.439Z,0
2018-11-06T01:35:36.436Z,0
2018-11-06T01:36:49.542Z,0
2018-11-06T01:38:03.602Z,0
2018-11-06T01:39:17.653Z,0
2018-11-06T01:40:31.961Z,0
2018-11-06T01:41:46.487Z,0
2018-11-06T01:43:00.734Z,0
2018-11-06T01:44:14.749Z,0
2018-11-06T01:45:28.837Z,0
2018-11-06T01:46:43.162Z,0
2018-11-06T01:47:57.181Z,0
2018-11-06T01:49:11.004Z,0
2018-11-06T01:50:25.254Z,0
2018-11-06T01:51:39.299Z,0
2018-11-06T01:52:53.115Z,0
2018-11-06T01:54:07.212Z,0
2018-11-06T01:55:20.993Z,0
2018-11-06T01:56:49.668Z,0
2018-11-06T01:58:03.959Z,0
2018-11-06T01:59:17.552Z,0
2018-11-06T02:00:32.093Z,0
2018-11-06T02:01:45.433Z,0
2018-11-06T02:03:02.261Z,0
2018-11-06T02:04:16.540Z,0
2018-11-06T02:05:30.640Z,0
2018-11-06T02:06:44.658Z,0
2018-11-06T02:07:59.177Z,0
2018-11-06T02:09:13.465Z,0
2018-11-06T02:10:27.803Z,0
2018-11-06T02:11:42.167Z,0
2018-11-06T02:13:00.011Z,0
2018-11-06T02:14:14.501Z,0
2018-11-06T02:15:28.291Z,0
2018-11-06T02:16:42.540Z,0
2018-11-06T02:17:56.805Z,0
2018-11-06T02:19:10.837Z,0
2018-11-06T02:20:25.264Z,0
2018-11-06T02:21:39.359Z,0
2018-11-06T02:22:53.415Z,0
2018-11-06T02:24:07.966Z,0
2018-11-06T02:25:21.983Z,0
2018-11-06T02:26:35.887Z,0
2018-11-06T02:27:50.356Z,0
2018-11-06T02:29:04.407Z,0
2018-11-06T02:30:18.244Z,0
2018-11-06T02:31:32.051Z,0
2018-11-06T02:32:46.038Z,0
2018-11-06T02:34:00.112Z,0
2018-11-06T02:35:14.435Z,0
2018-11-06T02:36:28.961Z,0
2018-11-06T02:37:43.667Z,0
2018-11-06T02:38:57.925Z,0
2018-11-06T02:40:12.222Z,0
2018-11-06T02:41:26.483Z,0
2018-11-06T02:42:39.815Z,0
2018-11-06T02:43:54.356Z,0
2018-11-06T02:45:08.190Z,0
2018-11-06T02:46:22.437Z,0
2018-11-06T02:47:36.227Z,0
2018-11-06T02:48:50.875Z,0
2018-11-06T02:50:04.897Z,0
2018-11-06T02:51:18.021Z,0
2018-11-06T02:52:32.310Z,0
2018-11-06T02:53:46.385Z,0
2018-11-06T02:55:00.917Z,0
2018-11-06T02:56:15.198Z,0
2018-11-06T02:57:29.499Z,0
2018-11-06T02:58:43.988Z,0
2018-11-06T02:59:58.112Z,0
2018-11-06T03:01:12.428Z,0
2018-11-06T03:02:30.472Z,0
2018-11-06T03:03:44.278Z,0
2018-11-06T03:04:58.281Z,0
2018-11-06T03:06:12.545Z,0
2018-11-06T03:07:26.109Z,0
2018-11-06T03:08:40.354Z,0
2018-11-06T03:09:54.172Z,0
2018-11-06T03:11:08.236Z,0
2018-11-06T03:12:22.249Z,0
2018-11-06T03:13:36.285Z,0
2018-11-06T03:14:50.550Z,0
2018-11-06T03:16:04.830Z,0
2018-11-06T03:17:18.873Z,0
2018-11-06T03:18:32.927Z,0
2018-11-06T03:19:47.203Z,0
2018-11-06T03:21:01.501Z,0
2018-11-06T03:22:15.337Z,0
2018-11-06T03:23:29.581Z,0
2018-11-06T03:24:43.366Z,0
2018-11-06T03:25:57.943Z,0
2018-11-06T03:27:13.424Z,0
2018-11-06T03:28:27.692Z,0
2018-11-06T03:29:41.980Z,0
2018-11-06T03:30:55.764Z,0
2018-11-06T03:32:09.975Z,0
2018-11-06T03:33:24.160Z,0
2018-11-06T03:34:37.732Z,0
2018-11-06T03:35:51.535Z,0
2018-11-06T03:37:05.581Z,0
2018-11-06T03:38:34.583Z,0
2018-11-06T03:39:48.642Z,0
2018-11-06T03:41:02.902Z,0
2018-11-06T03:42:16.709Z,0
2018-11-06T03:43:30.533Z,0
2018-11-06T03:44:44.330Z,0
2018-11-06T03:45:58.575Z,0
2018-11-06T03:47:12.411Z,0
2018-11-06T03:48:26.866Z,0
2018-11-06T03:49:40.643Z,0
2018-11-06T03:50:54.268Z,0
2018-11-06T03:52:08.345Z,0
2018-11-06T03:53:21.906Z,0
2018-11-06T03:54:35.494Z,0
2018-11-06T03:55:49.353Z,0
2018-11-06T03:57:03.706Z,0
2018-11-06T03:58:17.516Z,0
2018-11-06T03:59:32.020Z,0
2018-11-06T04:00:46.042Z,0
2018-11-06T04:02:00.313Z,0
2018-11-06T04:03:15.084Z,0
2018-11-06T04:04:28.914Z,0
2018-11-06T04:05:42.832Z,0
2018-11-06T04:06:57.314Z,0
2018-11-06T04:08:11.390Z,0
2018-11-06T04:09:40.085Z,0
2018-11-06T04:10:54.370Z,0
2018-11-06T04:12:08.393Z,0
2018-11-06T04:13:22.519Z,0
2018-11-06T04:14:36.099Z,0
2018-11-06T04:15:50.590Z,0
2018-11-06T04:17:04.602Z,0
2018-11-06T04:18:18.660Z,0
2018-11-06T04:19:32.695Z,0
2018-11-06T04:20:46.701Z,0
2018-11-06T04:22:00.748Z,0
2018-11-06T04:23:15.178Z,0
2018-11-06T04:24:29.520Z,0
2018-11-06T04:25:43.371Z,0
2018-11-06T04:26:57.443Z,0
2018-11-06T04:28:11.806Z,0
2018-11-06T04:29:25.703Z,0
2018-11-06T04:30:39.715Z,0
2018-11-06T04:31:53.767Z,0
2018-11-06T04:33:08.032Z,0
2018-11-06T04:34:21.919Z,0
2018-11-06T04:35:35.536Z,0
2018-11-06T04:36:49.819Z,0
2018-11-06T04:38:03.979Z,0
2018-11-06T04:39:17.798Z,0
2018-11-06T04:40:32.349Z,0
2018-11-06T04:41:46.153Z,0
2018-11-06T04:43:00.709Z,0
2018-11-06T04:44:14.992Z,0
2018-11-06T04:45:29.018Z,0
2018-11-06T04:46:43.598Z,0
2018-11-06T04:47:57.670Z,0
2018-11-06T04:49:11.421Z,0
2018-11-06T04:50:27.017Z,0
2018-11-06T04:51:41.655Z,0
2018-11-06T04:52:56.232Z,0
2018-11-06T04:54:10.779Z,0
2018-11-06T04:55:24.097Z,0
2018-11-06T04:56:37.657Z,0
2018-11-06T04:57:51.660Z,0
2018-11-06T04:59:06.227Z,0
2018-11-06T05:00:20.270Z,0
2018-11-06T05:01:34.063Z,0
2018-11-06T05:02:48.400Z,0
2018-11-06T05:04:02.911Z,0
2018-11-06T05:05:17.087Z,0
2018-11-06T05:06:31.667Z,0
2018-11-06T05:07:45.557Z,0
2018-11-06T05:08:59.456Z,0
2018-11-06T05:10:13.267Z,0
2018-11-06T05:11:27.844Z,0
2018-11-06T05:12:41.454Z,0
2018-11-06T05:13:56.019Z,0
2018-11-06T05:15:09.824Z,0
2018-11-06T05:16:24.124Z,0
2018-11-06T05:17:38.606Z,0
2018-11-06T05:18:52.407Z,0
2018-11-06T05:20:06.699Z,0
2018-11-06T05:21:20.498Z,0
2018-11-06T05:22:34.774Z,0
2018-11-06T05:23:49.139Z,0
2018-11-06T05:25:02.965Z,0
2018-11-06T05:26:16.753Z,0
2018-11-06T05:27:31.272Z,0
2018-11-06T05:28:46.022Z,0
2018-11-06T05:30:00.321Z,0
2018-11-06T05:31:13.859Z,0
2018-11-06T05:32:27.911Z,0
2018-11-06T05:33:41.976Z,0
2018-11-06T05:34:56.466Z,0
2018-11-06T05:36:11.028Z,0
2018-11-06T05:37:25.051Z,0
2018-11-06T05:38:38.828Z,0
2018-11-06T05:39:52.629Z,0
2018-11-06T05:41:06.662Z,0
2018-11-06T05:42:20.667Z,0
2018-11-06T05:43:34.208Z,0
2018-11-06T05:44:48.368Z,0
2018-11-06T05:46:02.400Z,0
2018-11-06T05:47:16.907Z,0
2018-11-06T05:48:30.973Z,0
2018-11-06T05:49:45.245Z,0
2018-11-06T05:51:03.310Z,0
2018-11-06T05:52:16.902Z,0
2018-11-06T05:53:31.089Z,0
2018-11-06T05:54:45.812Z,0
2018-11-06T05:56:00.137Z,4
2018-11-06T05:57:14.668Z,0
2018-11-06T05:58:28.227Z,0
2018-11-06T05:59:42.710Z,4
2018-11-06T06:00:57.260Z,4
2018-11-06T06:02:11.070Z,4
2018-11-06T06:03:24.679Z,8
2018-11-06T06:04:38.289Z,4
2018-11-06T06:05:52.432Z,4
2018-11-06T06:07:06.302Z,12
2018-11-06T06:08:19.866Z,8
2018-11-06T06:09:33.764Z,12
2018-11-06T06:10:49.565Z,16
2018-11-06T06:12:03.939Z,16
2018-11-06T06:13:17.999Z,20
2018-11-06T06:14:32.071Z,24
2018-11-06T06:15:46.084Z,28
2018-11-06T06:18:29.725Z,36
2018-11-06T06:19:43.288Z,44
2018-11-06T06:20:57.585Z,44
2018-11-06T06:22:11.147Z,48
2018-11-06T06:23:24.741Z,56
2018-11-06T06:24:38.338Z,56
2018-11-06T06:25:52.132Z,68
2018-11-06T06:28:35.323Z,84
2018-11-06T06:29:50.279Z,96
2018-11-06T06:31:04.786Z,104
2018-11-06T06:32:18.833Z,116
2018-11-06T06:33:33.353Z,124
2018-11-06T06:34:48.044Z,140
2018-11-06T06:36:02.533Z,156
2018-11-06T06:37:16.416Z,168
2018-11-06T06:38:30.575Z,184
2018-11-06T06:39:44.481Z,196
2018-11-06T06:40:59.203Z,208
2018-11-06T06:42:14.366Z,220
2018-11-06T06:43:28.473Z,232
2018-11-06T06:44:42.529Z,244
2018-11-06T06:45:56.324Z,268
2018-11-06T06:47:10.405Z,280
2018-11-06T06:48:24.514Z,304
2018-11-06T06:49:38.117Z,324
2018-11-06T06:50:51.560Z,364
2018-11-06T06:52:05.167Z,372
2018-11-06T06:53:18.943Z,396
2018-11-06T06:54:33.634Z,420
2018-11-06T06:55:48.341Z,424
2018-11-06T06:57:02.634Z,460
2018-11-06T06:58:16.905Z,468
2018-11-06T06:59:30.959Z,492
2018-11-06T07:00:45.481Z,508
2018-11-06T07:01:59.096Z,544
2018-11-06T07:03:12.913Z,572
2018-11-06T07:04:27.212Z,564
2018-11-06T07:05:41.223Z,584
2018-11-06T07:06:55.572Z,612
2018-11-06T07:08:10.000Z,656
2018-11-06T07:10:11.137Z,736
2018-11-06T07:11:25.406Z,772
2018-11-06T07:12:40.206Z,776
2018-11-06T07:13:54.401Z,804
2018-11-06T07:15:07.990Z,836
2018-11-06T07:16:22.074Z,892
2018-11-06T07:17:36.112Z,928
2018-11-06T07:18:51.303Z,956
2018-11-06T07:20:19.349Z,988
2018-11-06T07:21:33.238Z,1020
2018-11-06T07:22:47.507Z,1072
2018-11-06T07:24:01.433Z,1112
2018-11-06T07:25:15.530Z,1148
2018-11-06T07:26:44.001Z,1148
2018-11-06T07:27:58.054Z,1168
2018-11-06T07:29:11.387Z,1176
2018-11-06T07:30:25.824Z,1224
2018-11-06T07:31:39.613Z,1224
2018-11-06T07:32:53.894Z,1220
2018-11-06T07:34:08.067Z,1212
2018-11-06T07:35:22.742Z,1188
2018-11-06T07:36:36.995Z,1176
2018-11-06T07:37:51.050Z,1184
2018-11-06T07:39:19.994Z,1184
2018-11-06T07:40:34.071Z,1168
2018-11-06T07:42:02.971Z,1136
2018-11-06T07:43:17.099Z,1132
2018-11-06T07:44:30.435Z,1128
2018-11-06T07:45:44.577Z,1172
2018-11-06T07:46:58.643Z,1264
2018-11-06T07:48:27.478Z,1332
2018-11-06T07:49:58.422Z,1296
2018-11-06T07:51:27.930Z,1264
2018-11-06T07:52:42.347Z,1252
2018-11-06T07:53:55.906Z,1248
2018-11-06T07:55:09.794Z,1272
2018-11-06T07:56:24.180Z,1392
2018-11-06T07:57:37.538Z,1444
2018-11-06T07:58:52.110Z,1440
2018-11-06T08:00:06.079Z,1456
2018-11-06T08:01:20.189Z,1480
2018-11-06T08:02:34.493Z,1448
2018-11-06T08:03:48.292Z,1464
2018-11-06T08:05:02.055Z,1452
2018-11-06T08:06:15.956Z,1420
2018-11-06T08:07:30.222Z,1420
2018-11-06T08:08:44.492Z,1376
2018-11-06T08:10:13.399Z,1372
2018-11-06T08:11:27.515Z,1372
2018-11-06T08:12:41.630Z,1368
2018-11-06T08:13:55.414Z,1368
2018-11-06T08:15:09.216Z,1356
2018-11-06T08:16:23.498Z,1356
2018-11-06T08:17:37.570Z,1360
2018-11-06T08:18:51.686Z,1404
2018-11-06T08:20:06.274Z,1448
2018-11-06T08:21:20.364Z,1500
2018-11-06T08:22:34.289Z,1504
2018-11-06T08:23:48.589Z,1512
2018-11-06T08:25:02.215Z,1512
2018-11-06T08:26:16.053Z,1540
2018-11-06T08:27:30.673Z,1612
2018-11-06T08:28:45.103Z,1660
2018-11-06T08:29:59.511Z,1708
2018-11-06T08:31:14.334Z,1772
2018-11-06T08:32:29.215Z,1800
2018-11-06T08:33:44.520Z,1872
2018-11-06T08:34:58.810Z,1972
2018-11-06T08:36:12.647Z,2016
2018-11-06T08:37:26.992Z,2092
2018-11-06T08:38:41.033Z,2116
2018-11-06T08:39:55.237Z,2116
2018-11-06T08:41:08.802Z,2084
2018-11-06T08:42:23.040Z,2068
2018-11-06T08:43:37.855Z,2060
2018-11-06T08:44:51.910Z,2056
2018-11-06T08:46:05.734Z,2016
2018-11-06T08:47:19.567Z,2004
2018-11-06T08:48:33.113Z,2000
2018-11-06T08:49:46.897Z,1956
2018-11-06T08:51:01.441Z,1964
2018-11-06T08:52:15.030Z,1976
2018-11-06T08:53:28.871Z,2004
2018-11-06T08:54:43.295Z,1992
2018-11-06T08:55:57.078Z,2040
2018-11-06T08:57:11.246Z,2092
2018-11-06T08:58:25.351Z,2096
2018-11-06T08:59:39.642Z,2060
2018-11-06T09:00:53.683Z,2096
2018-11-06T09:02:08.091Z,2152
2018-11-06T09:03:21.916Z,2132
2018-11-06T09:04:35.080Z,2204
2018-11-06T09:05:49.512Z,2212
2018-11-06T09:07:04.073Z,2224
2018-11-06T09:08:17.732Z,2228
2018-11-06T09:09:32.027Z,2220
2018-11-06T09:10:45.618Z,2216
2018-11-06T09:12:00.193Z,2192
2018-11-06T09:13:14.503Z,2208
2018-11-06T09:14:28.386Z,2212
2018-11-06T09:15:42.236Z,2180
2018-11-06T09:16:56.578Z,2148
2018-11-06T09:18:10.859Z,2148
2018-11-06T09:19:39.425Z,2080
2018-11-06T09:20:53.978Z,2036
2018-11-06T09:22:07.553Z,2000
2018-11-06T09:23:21.784Z,1952
2018-11-06T09:24:35.591Z,1916
2018-11-06T09:25:49.195Z,1864
2018-11-06T09:27:03.016Z,1848
2018-11-06T09:29:48.634Z,1876
2018-11-06T09:31:03.208Z,1872
2018-11-06T09:32:17.672Z,1884
2018-11-06T09:33:31.749Z,1876
2018-11-06T09:34:45.448Z,1880
2018-11-06T09:35:59.495Z,1888
2018-11-06T09:37:13.412Z,1940
2018-11-06T09:38:42.427Z,2032
2018-11-06T09:39:56.262Z,2116
2018-11-06T09:41:10.017Z,2196
2018-11-06T09:42:24.443Z,2260
2018-11-06T09:43:38.069Z,2312
2018-11-06T09:44:51.657Z,2356
2018-11-06T09:46:05.932Z,2404
2018-11-06T09:47:19.741Z,2436
2018-11-06T09:48:39.315Z,2448
2018-11-06T09:49:53.109Z,2476
2018-11-06T09:51:07.405Z,2516
2018-11-06T09:52:21.661Z,2548
2018-11-06T09:53:35.012Z,2564
2018-11-06T09:54:48.330Z,2596
2018-11-06T09:56:02.595Z,2640
2018-11-06T09:57:16.597Z,2692
2018-11-06T09:58:38.287Z,2756
2018-11-06T09:59:52.973Z,2792
2018-11-06T10:01:06.863Z,2812
2018-11-06T10:02:20.707Z,2840
2018-11-06T10:03:34.512Z,2868
2018-11-06T10:04:48.995Z,2904
2018-11-06T10:06:03.425Z,2940
2018-11-06T10:07:20.570Z,2976
2018-11-06T10:08:48.665Z,2988
2018-11-06T10:10:02.696Z,2988
2018-11-06T10:11:16.065Z,3016
2018-11-06T10:12:30.139Z,3032
2018-11-06T10:13:44.371Z,3048
2018-11-06T10:14:58.179Z,3060
2018-11-06T10:16:11.744Z,3068
2018-11-06T10:17:25.094Z,3088
2018-11-06T10:18:39.393Z,3116
2018-11-06T10:19:53.510Z,3168
2018-11-06T10:21:07.136Z,3240
2018-11-06T10:22:21.658Z,3308
2018-11-06T10:23:35.966Z,3340
2018-11-06T10:24:50.005Z,3332
2018-11-06T10:26:03.574Z,3296
2018-11-06T10:27:17.859Z,3236
2018-11-06T10:28:31.679Z,3156
2018-11-06T10:29:45.304Z,3092
2018-11-06T10:31:00.021Z,3060
2018-11-06T10:32:14.091Z,3032
2018-11-06T10:33:28.152Z,2992
2018-11-06T10:34:41.959Z,2960
2018-11-06T10:35:55.988Z,2952
2018-11-06T10:37:09.809Z,2952
2018-11-06T10:38:24.288Z,2928
2018-11-06T10:39:38.346Z,2920
2018-11-06T10:40:52.617Z,2928
2018-11-06T10:42:06.233Z,2968
2018-11-06T10:43:20.006Z,3036
2018-11-06T10:44:34.014Z,3076
2018-11-06T10:45:47.985Z,3072
2018-11-06T10:47:02.270Z,3072
2018-11-06T10:48:16.110Z,3068
2018-11-06T10:49:29.700Z,3076
2018-11-06T10:50:43.504Z,3092
2018-11-06T10:51:58.606Z,3108
2018-11-06T10:53:12.427Z,3100
2018-11-06T10:54:26.997Z,3080
2018-11-06T10:55:40.116Z,3084
2018-11-06T10:56:54.668Z,3100
2018-11-06T10:58:08.847Z,3128
2018-11-06T10:59:22.709Z,3152
2018-11-06T11:00:37.011Z,3144
2018-11-06T11:01:51.039Z,3104
2018-11-06T11:03:04.810Z,3048
2018-11-06T11:04:19.112Z,3036
2018-11-06T11:05:33.469Z,3132
2018-11-06T11:06:47.537Z,3212
2018-11-06T11:08:01.837Z,3252
2018-11-06T11:09:16.093Z,3184
2018-11-06T11:10:30.384Z,3164
2018-11-06T11:11:44.680Z,3168
2018-11-06T11:12:58.832Z,3216
2018-11-06T11:14:12.896Z,3252
2018-11-06T11:15:26.925Z,3344
2018-11-06T11:16:41.227Z,3368
2018-11-06T11:17:54.798Z,3420
2018-11-06T11:19:08.868Z,3408
2018-11-06T11:20:23.316Z,3396
2018-11-06T11:21:36.906Z,3336
2018-11-06T11:22:51.025Z,3244
2018-11-06T11:24:04.846Z,3140
2018-11-06T11:25:18.987Z,3048
2018-11-06T11:26:33.067Z,2936
2018-11-06T11:27:47.418Z,2800
2018-11-06T11:29:01.807Z,2716
2018-11-06T11:30:15.128Z,2660
2018-11-06T11:31:28.962Z,2604
2018-11-06T11:32:42.780Z,2544
2018-11-06T11:33:57.120Z,2488
2018-11-06T11:35:11.125Z,2428
2018-11-06T11:36:25.247Z,2372
2018-11-06T11:37:44.638Z,2292
2018-11-06T11:38:58.754Z,2244
2018-11-06T11:40:27.795Z,2208
2018-11-06T11:41:42.334Z,2196
2018-11-06T11:42:56.134Z,2200
2018-11-06T11:44:10.032Z,2212
2018-11-06T11:45:39.266Z,2240
2018-11-06T11:46:53.350Z,2256
2018-11-06T11:48:07.430Z,2296
2018-11-06T11:49:21.465Z,2376
2018-11-06T11:50:35.491Z,2436
2018-11-06T11:51:49.316Z,2480
2018-11-06T11:53:03.609Z,2516
2018-11-06T11:54:17.401Z,2540
2018-11-06T11:55:31.732Z,2556
2018-11-06T11:56:45.369Z,2580
2018-11-06T11:57:59.427Z,2608
2018-11-06T11:59:13.451Z,2636
2018-11-06T12:00:42.653Z,2676
2018-11-06T12:01:56.038Z,2712
2018-11-06T12:03:09.633Z,2740
2018-11-06T12:04:23.682Z,2752
2018-11-06T12:05:52.871Z,2772
2018-11-06T12:07:22.196Z,2784
2018-11-06T12:08:36.149Z,2784
2018-11-06T12:09:49.977Z,2784
2018-11-06T12:11:04.511Z,2776
2018-11-06T12:12:18.789Z,2752
2018-11-06T12:13:47.993Z,2736
2018-11-06T12:15:16.735Z,2720
2018-11-06T12:16:31.262Z,2704
2018-11-06T12:17:44.849Z,2692
2018-11-06T12:18:58.569Z,2684
2018-11-06T12:20:12.141Z,2692
2018-11-06T12:21:26.215Z,2688
2018-11-06T12:22:40.485Z,2688
2018-11-06T12:23:54.553Z,2684
2018-11-06T12:25:09.278Z,2684
2018-11-06T12:26:24.605Z,2672
2018-11-06T12:27:38.636Z,2656
2018-11-06T12:28:53.205Z,2636
2018-11-06T12:30:07.514Z,2608
2018-11-06T12:31:21.129Z,2588
2018-11-06T12:32:35.375Z,2572
2018-11-06T12:33:48.701Z,2560
2018-11-06T12:36:31.518Z,2544
2018-11-06T12:38:00.484Z,2524
2018-11-06T12:39:14.531Z,2504
2018-11-06T12:40:28.241Z,2476
2018-11-06T12:41:42.340Z,2464
2018-11-06T12:42:56.633Z,2440
2018-11-06T12:44:11.374Z,2420
2018-11-06T12:45:24.741Z,2408
2018-11-06T12:46:54.839Z,2404
2018-11-06T12:48:09.396Z,2408
2018-11-06T12:49:23.455Z,2400
2018-11-06T12:50:37.295Z,2384
2018-11-06T12:51:51.468Z,2368
2018-11-06T12:53:05.505Z,2348
2018-11-06T12:54:19.593Z,2324
2018-11-06T12:55:33.918Z,2312
2018-11-06T12:56:53.104Z,2304
2018-11-06T12:58:07.657Z,2296
2018-11-06T12:59:21.701Z,2292
2018-11-06T13:00:36.484Z,2296
2018-11-06T13:01:50.560Z,2292
2018-11-06T13:03:04.394Z,2292
2018-11-06T13:04:17.997Z,2300
2018-11-06T13:05:32.314Z,2296
2018-11-06T13:06:46.670Z,2284
2018-11-06T13:08:00.737Z,2280
2018-11-06T13:09:14.109Z,2268
2018-11-06T13:10:28.369Z,2252
2018-11-06T13:11:42.721Z,2236
2018-11-06T13:12:57.322Z,2220
2018-11-06T13:14:11.630Z,2212
2018-11-06T13:15:26.863Z,2204
2018-11-06T13:16:41.115Z,2188
2018-11-06T13:17:55.391Z,2156
2018-11-06T13:19:09.444Z,2120
2018-11-06T13:20:23.268Z,2104
2018-11-06T13:21:37.321Z,2096
2018-11-06T13:22:50.894Z,2104
2018-11-06T13:24:04.937Z,2108
2018-11-06T13:25:19.124Z,2100
2018-11-06T13:26:34.654Z,2084
2018-11-06T13:27:49.225Z,2088
2018-11-06T13:29:02.965Z,2076
2018-11-06T13:30:17.224Z,2064
2018-11-06T13:31:31.833Z,2068
2018-11-06T13:32:45.624Z,2080
2018-11-06T13:33:59.658Z,2088
2018-11-06T13:35:13.211Z,2072
2018-11-06T13:36:27.281Z,2064
2018-11-06T13:37:41.395Z,2048
2018-11-06T13:38:55.881Z,2036
2018-11-06T13:40:09.716Z,2032
2018-11-06T13:41:23.983Z,2024
2018-11-06T13:42:39.012Z,2016
2018-11-06T13:43:54.458Z,2028
2018-11-06T13:45:09.824Z,2028
2018-11-06T13:46:24.340Z,1980
2018-11-06T13:47:38.947Z,1976
2018-11-06T13:48:53.266Z,1968
2018-11-06T13:50:07.609Z,1964
2018-11-06T13:51:22.228Z,1948
2018-11-06T13:52:36.527Z,1964
2018-11-06T13:53:50.809Z,1936
2018-11-06T13:55:04.426Z,1936
2018-11-06T13:56:19.025Z,1956
2018-11-06T13:57:33.315Z,1904
2018-11-06T13:58:47.260Z,1880
2018-11-06T14:00:01.113Z,1852
2018-11-06T14:01:15.180Z,1836
2018-11-06T14:02:29.579Z,1816
2018-11-06T14:03:43.628Z,1824
2018-11-06T14:04:57.685Z,1832
2018-11-06T14:06:11.817Z,1824
2018-11-06T14:07:25.659Z,1844
2018-11-06T14:08:40.435Z,1848
2018-11-06T14:09:54.528Z,1840
2018-11-06T14:11:08.101Z,1812
2018-11-06T14:12:21.892Z,1800
2018-11-06T14:13:35.737Z,1788
2018-11-06T14:14:49.589Z,1780
2018-11-06T14:16:03.609Z,1752
2018-11-06T14:17:17.270Z,1740
2018-11-06T14:18:31.191Z,1704
2018-11-06T14:19:45.055Z,1660
2018-11-06T14:20:59.641Z,1628
2018-11-06T14:22:14.093Z,1604
2018-11-06T14:23:28.184Z,1564
2018-11-06T14:24:41.812Z,1536
2018-11-06T14:25:55.869Z,1504
2018-11-06T14:27:10.686Z,1468
2018-11-06T14:28:24.861Z,1440
2018-11-06T14:29:38.898Z,1416
2018-11-06T14:30:52.700Z,1404
2018-11-06T14:32:07.172Z,1380
2018-11-06T14:33:20.989Z,1352
2018-11-06T14:34:35.293Z,1328
2018-11-06T14:35:49.168Z,1304
2018-11-06T14:37:03.615Z,1276
2018-11-06T14:38:17.461Z,1264
2018-11-06T14:39:31.568Z,1244
2018-11-06T14:40:45.397Z,1232
2018-11-06T14:41:59.244Z,1204
2018-11-06T14:43:13.369Z,1180
2018-11-06T14:44:27.434Z,1160
2018-11-06T14:45:43.599Z,1136
2018-11-06T14:46:57.419Z,1108
2018-11-06T14:48:12.269Z,1076
2018-11-06T14:49:27.390Z,1044
2018-11-06T14:50:41.681Z,1016
2018-11-06T14:51:55.539Z,980
2018-11-06T14:53:09.575Z,944
2018-11-06T14:54:23.442Z,916
2018-11-06T14:55:36.850Z,880
2018-11-06T14:56:50.952Z,852
2018-11-06T14:58:05.057Z,832
2018-11-06T14:59:19.200Z,812
2018-11-06T15:00:33.339Z,792
2018-11-06T15:01:47.478Z,772
2018-11-06T15:03:01.780Z,756
2018-11-06T15:04:15.830Z,736
2018-11-06T15:05:33.384Z,716
2018-11-06T15:06:47.606Z,700
2018-11-06T15:08:01.960Z,680
2018-11-06T15:09:15.985Z,660
2018-11-06T15:10:29.815Z,644
2018-11-06T15:11:44.474Z,628
2018-11-06T15:12:59.252Z,612
2018-11-06T15:14:13.519Z,596
2018-11-06T15:15:42.773Z,572
2018-11-06T15:16:56.637Z,552
2018-11-06T15:18:10.725Z,528
2018-11-06T15:19:24.839Z,500
2018-11-06T15:20:39.216Z,464
2018-11-06T15:21:52.777Z,440
2018-11-06T15:23:06.800Z,412
2018-11-06T15:24:21.120Z,384
2018-11-06T15:25:35.227Z,360
2018-11-06T15:26:49.573Z,340
2018-11-06T15:28:03.390Z,316
2018-11-06T15:29:17.427Z,296
2018-11-06T15:30:31.754Z,272
2018-11-06T15:31:45.871Z,256
2018-11-06T15:32:59.666Z,240
2018-11-06T15:34:13.494Z,228
2018-11-06T15:35:27.329Z,212
2018-11-06T15:36:41.138Z,196
2018-11-06T15:37:55.553Z,180
2018-11-06T15:39:09.838Z,168
2018-11-06T15:40:24.172Z,152
2018-11-06T15:41:38.557Z,144
2018-11-06T15:42:52.962Z,132
2018-11-06T15:44:06.567Z,124
2018-11-06T15:45:20.424Z,112
2018-11-06T15:46:34.242Z,108
2018-11-06T15:47:48.066Z,100
2018-11-06T15:49:02.759Z,84
2018-11-06T15:50:16.439Z,76
2018-11-06T15:51:30.742Z,72
2018-11-06T15:52:44.529Z,64
2018-11-06T15:53:58.338Z,56
2018-11-06T15:55:12.622Z,52
2018-11-06T15:56:26.685Z,44
2018-11-06T15:57:40.953Z,40
2018-11-06T15:58:55.074Z,36
2018-11-06T16:00:08.899Z,32
2018-11-06T16:01:23.167Z,28
2018-11-06T16:02:36.510Z,20
2018-11-06T16:03:49.870Z,20
2018-11-06T16:05:04.126Z,16
2018-11-06T16:06:17.722Z,16
2018-11-06T16:07:31.083Z,12
2018-11-06T16:08:44.882Z,8
2018-11-06T16:09:59.167Z,8
2018-11-06T16:11:12.973Z,4
2018-11-06T16:12:27.008Z,4
2018-11-06T16:13:41.108Z,4
2018-11-06T16:15:09.803Z,4
2018-11-06T16:16:24.018Z,0
2018-11-06T16:17:38.065Z,4
2018-11-06T16:19:06.893Z,0
2018-11-06T16:20:20.284Z,0
2018-11-06T16:21:34.716Z,0
2018-11-06T16:22:48.750Z,0
2018-11-06T16:24:03.138Z,0
2018-11-06T16:25:17.699Z,0
2018-11-06T16:26:32.014Z,0
2018-11-06T16:27:45.715Z,0
2018-11-06T16:29:00.622Z,0
2018-11-06T16:30:14.758Z,0
2018-11-06T16:31:28.638Z,0
2018-11-06T16:32:42.766Z,0
2018-11-06T16:33:57.069Z,0
2018-11-06T16:35:10.925Z,0
2018-11-06T16:36:24.740Z,0
2018-11-06T16:37:38.789Z,0
2018-11-06T16:38:53.132Z,0
2018-11-06T16:40:07.183Z,0
2018-11-06T16:42:49.924Z,0
2018-11-06T16:44:03.637Z,0
2018-11-06T16:45:18.441Z,0
2018-11-06T16:46:32.832Z,0
2018-11-06T16:47:46.915Z,0
2018-11-06T16:49:00.767Z,0
2018-11-06T16:50:14.839Z,0
2018-11-06T16:51:43.598Z,0
2018-11-06T16:52:57.421Z,0
2018-11-06T16:54:28.190Z,0
2018-11-06T16:55:42.499Z,0
2018-11-06T16:56:56.746Z,0
2018-11-06T16:58:11.107Z,0
2018-11-06T16:59:40.234Z,0
2018-11-06T17:00:55.320Z,0
2018-11-06T17:02:09.981Z,0
2018-11-06T17:03:24.277Z,0
2018-11-06T17:04:38.603Z,0
2018-11-06T17:05:52.678Z,0
2018-11-06T17:07:06.749Z,0
2018-11-06T17:08:21.013Z,0
2018-11-06T17:09:35.068Z,0
2018-11-06T17:10:49.007Z,0
2018-11-06T17:12:03.446Z,0
2018-11-06T17:13:18.011Z,0
2018-11-06T17:14:31.564Z,0
2018-11-06T17:15:45.642Z,0
2018-11-06T17:16:59.630Z,0
2018-11-06T17:18:13.623Z,0
2018-11-06T17:19:27.572Z,0
2018-11-06T17:20:41.458Z,0
2018-11-06T17:21:55.767Z,0
2018-11-06T17:23:10.094Z,0
2018-11-06T17:24:27.720Z,0
2018-11-06T17:25:42.038Z,0
2018-11-06T17:26:56.500Z,0
2018-11-06T17:28:10.579Z,0
2018-11-06T17:29:24.704Z,0
2018-11-06T17:30:38.526Z,0
2018-11-06T17:31:52.518Z,0
2018-11-06T17:33:07.238Z,0
2018-11-06T17:34:21.482Z,0
2018-11-06T17:35:35.440Z,0
2018-11-06T17:36:49.234Z,0
2018-11-06T17:38:03.094Z,0
2018-11-06T17:39:17.189Z,0
2018-11-06T17:40:31.115Z,0
2018-11-06T17:41:44.803Z,0
2018-11-06T17:42:58.800Z,0
2018-11-06T17:44:13.195Z,0
2018-11-06T17:45:27.894Z,0